createdAt,value
2019-01-25T00:01:11.310Z,47.83
2019-01-25T00:05:15.494Z,46.13
2019-01-25T00:09:19.639Z,47.57
2019-01-25T00:13:23.762Z,49.13
2019-01-25T00:17:28.033Z,46.53
2019-01-25T00:21:32.150Z,47.47
2019-01-25T00:25:36.254Z,47.40
2019-01-25T00:29:40.458Z,45.13
2019-01-25T00:33:44.650Z,48.33
2019-01-25T00:37:48.845Z,48.10
2019-01-25T00:41:52.965Z,46.00
2019-01-25T00:45:57.106Z,47.20
2019-01-25T00:50:01.373Z,46.00
2019-01-25T00:54:06.571Z,48.90
2019-01-25T00:58:10.768Z,45.97
2019-01-25T01:02:14.970Z,46.97
2019-01-25T01:06:19.121Z,47.43
2019-01-25T01:10:23.441Z,46.60
2019-01-25T01:14:27.566Z,46.53
2019-01-25T01:18:31.775Z,46.67
2019-01-25T01:22:35.994Z,47.67
2019-01-25T01:26:40.181Z,47.67
2019-01-25T01:30:44.386Z,48.27
2019-01-25T01:34:48.669Z,46.47
2019-01-25T01:38:52.872Z,46.37
2019-01-25T01:42:56.991Z,48.43
2019-01-25T01:47:01.157Z,49.33
2019-01-25T01:51:05.581Z,49.97
2019-01-25T01:55:09.934Z,48.93
2019-01-25T01:59:14.053Z,48.70
2019-01-25T02:03:18.222Z,47.60
2019-01-25T02:07:22.417Z,48.57
2019-01-25T02:11:26.605Z,46.57
2019-01-25T02:15:30.792Z,48.00
2019-01-25T02:19:35.082Z,51.17
2019-01-25T02:23:39.278Z,47.03
2019-01-25T02:27:43.383Z,47.97
2019-01-25T02:31:47.584Z,49.13
2019-01-25T02:35:51.779Z,48.17
2019-01-25T02:39:55.987Z,48.63
2019-01-25T02:44:00.179Z,48.23
2019-01-25T02:48:04.458Z,50.33
2019-01-25T02:52:08.735Z,48.93
2019-01-25T02:56:12.925Z,50.27
2019-01-25T03:00:22.201Z,48.50
2019-01-25T03:04:26.402Z,47.27
2019-01-25T03:08:30.594Z,46.40
2019-01-25T03:12:34.720Z,50.10
2019-01-25T03:16:38.958Z,49.17
2019-01-25T03:20:43.163Z,47.63
2019-01-25T03:24:47.357Z,50.53
2019-01-25T03:28:51.521Z,48.73
2019-01-25T03:32:55.673Z,48.30
2019-01-25T03:36:59.851Z,47.37
2019-01-25T03:41:04.159Z,49.33
2019-01-25T03:45:08.662Z,50.23
2019-01-25T03:49:12.847Z,47.57
2019-01-25T03:53:17.045Z,49.53
2019-01-25T03:57:21.246Z,48.80
2019-01-25T04:01:25.379Z,46.57
2019-01-25T04:05:29.681Z,47.90
2019-01-25T04:09:33.926Z,48.53
2019-01-25T04:13:38.131Z,49.83
2019-01-25T04:17:42.318Z,47.13
2019-01-25T04:21:46.444Z,48.37
2019-01-25T04:25:50.642Z,49.00
2019-01-25T04:29:54.744Z,47.27
2019-01-25T04:33:58.933Z,49.17
2019-01-25T04:38:03.125Z,49.97
2019-01-25T04:42:07.338Z,49.60
2019-01-25T04:46:11.607Z,49.07
2019-01-25T04:50:23.229Z,47.40
2019-01-25T04:54:27.435Z,48.80
2019-01-25T04:58:31.671Z,50.10
2019-01-25T05:02:35.871Z,47.47
2019-01-25T05:06:40.103Z,50.27
2019-01-25T05:10:44.318Z,48.27
2019-01-25T05:14:48.493Z,48.00
2019-01-25T05:18:52.682Z,49.40
2019-01-25T05:22:58.469Z,46.10
2019-01-25T05:27:02.664Z,42.20
2019-01-25T05:31:07.914Z,40.17
2019-01-25T05:35:12.101Z,39.20
2019-01-25T05:39:16.311Z,42.00
2019-01-25T05:43:20.546Z,43.33
2019-01-25T05:47:24.684Z,45.77
2019-01-25T05:51:33.528Z,44.03
2019-01-25T05:55:34.922Z,45.10
2019-01-25T05:59:39.115Z,40.30
2019-01-25T06:03:43.393Z,45.10
2019-01-25T06:07:47.712Z,39.00
2019-01-25T06:11:51.849Z,41.43
2019-01-25T06:15:56.073Z,41.77
2019-01-25T06:20:00.360Z,37.07
2019-01-25T06:24:04.579Z,40.90
2019-01-25T06:28:08.780Z,34.53
2019-01-25T06:32:13.110Z,31.60
2019-01-25T06:36:17.291Z,34.93
2019-01-25T06:40:21.480Z,32.57
2019-01-25T06:44:25.709Z,29.37
2019-01-25T06:48:29.915Z,31.33
2019-01-25T06:52:34.199Z,29.27
2019-01-25T06:56:38.376Z,31.17
2019-01-25T07:00:48.933Z,29.70
2019-01-25T07:04:53.254Z,29.23
2019-01-25T07:08:57.473Z,30.90
2019-01-25T07:13:01.590Z,28.40
2019-01-25T07:17:05.898Z,29.80
2019-01-25T07:21:10.079Z,29.23
2019-01-25T07:25:15.009Z,30.00
2019-01-25T07:29:19.226Z,33.65
2019-01-25T07:33:23.429Z,32.20
2019-01-25T07:37:27.590Z,27.50
2019-01-25T07:41:31.871Z,29.07
2019-01-25T07:45:36.063Z,30.67
2019-01-25T07:49:40.255Z,32.03
2019-01-25T07:53:44.447Z,31.30
2019-01-25T07:57:48.624Z,31.80
2019-01-25T08:01:52.847Z,31.53
2019-01-25T08:05:57.057Z,32.20
2019-01-25T08:10:01.266Z,32.87
2019-01-25T08:14:05.540Z,34.70
2019-01-25T08:18:09.735Z,32.87
2019-01-25T08:22:13.915Z,32.40
2019-01-25T08:26:18.202Z,34.27
2019-01-25T08:30:22.516Z,35.40
2019-01-25T08:34:26.699Z,33.97
2019-01-25T08:38:30.894Z,32.23
2019-01-25T08:42:35.072Z,35.03
2019-01-25T08:46:39.368Z,34.30
2019-01-25T08:50:43.600Z,34.73
2019-01-25T08:54:47.883Z,33.90
2019-01-25T08:58:52.050Z,34.00
2019-01-25T09:02:56.361Z,33.67
2019-01-25T09:07:00.555Z,34.20
2019-01-25T09:11:04.778Z,32.97
2019-01-25T09:15:11.650Z,33.70
2019-01-25T09:19:15.853Z,35.50
2019-01-25T09:23:20.017Z,34.47
2019-01-25T09:27:24.156Z,32.83
2019-01-25T09:31:28.354Z,37.27
2019-01-25T09:35:32.555Z,33.63
2019-01-25T09:39:36.788Z,34.47
2019-01-25T09:43:40.949Z,34.40
2019-01-25T09:47:45.146Z,36.53
2019-01-25T09:51:49.346Z,34.43
2019-01-25T09:55:53.546Z,35.93
2019-01-25T09:59:57.902Z,35.37
2019-01-25T10:04:02.106Z,35.27
2019-01-25T10:08:06.338Z,33.60
2019-01-25T10:12:10.533Z,33.47
2019-01-25T10:16:15.691Z,35.60
2019-01-25T10:20:20.359Z,36.50
2019-01-25T10:24:24.566Z,34.23
2019-01-25T10:28:28.762Z,34.03
2019-01-25T10:32:33.045Z,30.53
2019-01-25T10:36:37.279Z,32.40
2019-01-25T10:40:41.463Z,32.07
2019-01-25T10:44:45.727Z,27.40
2019-01-25T10:48:49.950Z,27.20
2019-01-25T10:52:54.170Z,26.50
2019-01-25T10:56:58.372Z,25.70
2019-01-25T11:01:02.589Z,27.67
2019-01-25T11:05:08.034Z,20.90
2019-01-25T11:09:12.263Z,29.80
2019-01-25T11:13:16.530Z,31.13
2019-01-25T11:17:20.726Z,28.93
2019-01-25T11:21:24.903Z,29.83
2019-01-25T11:25:31.851Z,29.47
2019-01-25T11:29:36.049Z,30.03
2019-01-25T11:33:40.306Z,29.23
2019-01-25T11:37:44.518Z,34.40
2019-01-25T11:41:48.699Z,31.83
2019-01-25T11:45:54.446Z,32.50
2019-01-25T11:49:58.699Z,30.50
2019-01-25T11:54:02.911Z,29.57
2019-01-25T11:58:07.230Z,30.57
2019-01-25T12:02:11.410Z,28.97
2019-01-25T12:06:16.599Z,27.23
2019-01-25T12:10:23.347Z,27.93
2019-01-25T12:14:27.564Z,27.73
2019-01-25T12:18:31.785Z,24.63
2019-01-25T12:22:36.089Z,26.03
2019-01-25T12:26:40.326Z,25.73
2019-01-25T12:30:44.514Z,27.20
2019-01-25T12:34:48.850Z,24.40
2019-01-25T12:38:53.041Z,27.00
2019-01-25T12:42:57.129Z,26.13
2019-01-25T12:47:01.425Z,25.43
2019-01-25T12:51:42.117Z,25.07
2019-01-25T12:55:46.333Z,25.10
2019-01-25T12:59:50.594Z,24.73
2019-01-25T13:03:55.091Z,27.13
2019-01-25T13:07:59.289Z,25.90
2019-01-25T13:12:03.479Z,26.40
2019-01-25T13:16:07.680Z,24.40
2019-01-25T13:20:15.066Z,27.40
2019-01-25T13:24:19.268Z,28.40
2019-01-25T13:28:23.440Z,25.73
2019-01-25T13:32:27.648Z,27.20
2019-01-25T13:36:31.838Z,27.37
2019-01-25T13:40:36.116Z,27.70
2019-01-25T13:44:40.321Z,27.23
2019-01-25T13:48:44.418Z,28.50
2019-01-25T13:52:48.623Z,28.33
2019-01-25T13:56:52.814Z,28.67
2019-01-25T14:00:56.938Z,27.57
2019-01-25T14:05:01.138Z,27.03
2019-01-25T14:09:07.766Z,27.63
2019-01-25T14:13:11.970Z,28.07
2019-01-25T14:17:16.166Z,28.87
2019-01-25T14:21:20.422Z,29.27
2019-01-25T14:25:24.778Z,28.83
2019-01-25T14:29:29.386Z,26.30
2019-01-25T14:33:33.689Z,25.80
2019-01-25T14:37:37.950Z,26.27
2019-01-25T14:41:42.158Z,26.70
2019-01-25T14:45:46.358Z,26.07
2019-01-25T14:49:50.472Z,24.90
2019-01-25T14:53:54.669Z,24.73
2019-01-25T14:57:58.789Z,24.23
2019-01-25T15:02:02.987Z,24.03
2019-01-25T15:06:07.227Z,22.80
2019-01-25T15:10:14.332Z,22.97
2019-01-25T15:14:18.530Z,21.87
2019-01-25T15:18:22.659Z,22.87
2019-01-25T15:22:26.855Z,26.40
2019-01-25T15:26:31.116Z,24.30
2019-01-25T15:30:35.293Z,23.13
2019-01-25T15:34:39.511Z,25.10
2019-01-25T15:38:43.754Z,26.33
2019-01-25T15:42:48.193Z,26.03
2019-01-25T15:46:52.375Z,25.73
2019-01-25T15:50:56.554Z,25.10
2019-01-25T15:55:00.705Z,26.10
2019-01-25T15:59:04.918Z,28.60
2019-01-25T16:03:09.113Z,26.90
2019-01-25T16:07:13.243Z,29.10
2019-01-25T16:11:17.456Z,31.43
2019-01-25T16:15:23.804Z,30.30
2019-01-25T16:19:28.039Z,32.63
2019-01-25T16:23:32.249Z,32.13
2019-01-25T16:27:36.481Z,34.37
2019-01-25T16:31:40.667Z,35.97
2019-01-25T16:35:44.862Z,35.97
2019-01-25T16:39:49.059Z,39.00
2019-01-25T16:43:53.266Z,35.20
2019-01-25T16:47:57.457Z,53.40
2019-01-25T16:52:01.555Z,38.50
2019-01-25T16:56:06.201Z,40.77
2019-01-25T17:00:19.983Z,39.47
2019-01-25T17:04:24.179Z,37.50
2019-01-25T17:08:28.389Z,37.87
2019-01-25T17:12:32.573Z,36.67
2019-01-25T17:16:36.745Z,40.03
2019-01-25T17:20:41.090Z,44.57
2019-01-25T17:24:45.293Z,40.63
2019-01-25T17:28:49.485Z,40.27
2019-01-25T17:32:54.108Z,39.90
2019-01-25T17:36:58.283Z,38.80
2019-01-25T17:41:02.477Z,35.20
2019-01-25T17:45:07.886Z,37.87
2019-01-25T17:49:12.090Z,35.37
2019-01-25T17:53:16.302Z,38.43
2019-01-25T17:57:20.486Z,37.57
2019-01-25T18:01:24.759Z,37.33
2019-01-25T18:05:28.957Z,39.27
2019-01-25T18:09:33.101Z,40.20
2019-01-25T18:13:37.227Z,39.87
2019-01-25T18:17:41.318Z,39.13
2019-01-25T18:21:45.531Z,40.03
2019-01-25T18:25:57.199Z,36.97
2019-01-25T18:30:01.919Z,35.57
2019-01-25T18:34:06.932Z,35.10
2019-01-25T18:38:11.121Z,39.43
2019-01-25T18:42:15.307Z,36.10
2019-01-25T18:46:19.593Z,33.83
2019-01-25T18:50:23.709Z,33.60
2019-01-25T18:54:27.985Z,34.00
2019-01-25T18:58:32.275Z,30.87
2019-01-25T19:02:36.486Z,32.63
2019-01-25T19:11:03.954Z,32.20
2019-01-25T19:15:10.717Z,31.80
2019-01-25T19:19:14.901Z,34.17
2019-01-25T19:23:19.209Z,31.30
2019-01-25T19:27:23.402Z,29.90
2019-01-25T19:31:27.607Z,29.10
2019-01-25T19:35:31.801Z,31.40
2019-01-25T19:39:35.973Z,29.10
2019-01-25T19:43:40.201Z,29.83
2019-01-25T19:47:44.382Z,28.43
2019-01-25T19:51:48.554Z,26.57
2019-01-25T19:55:52.770Z,28.93
2019-01-25T19:59:56.965Z,26.77
2019-01-25T20:04:01.142Z,28.73
2019-01-25T20:08:06.257Z,29.20
2019-01-25T20:12:10.369Z,28.90
2019-01-25T20:16:14.588Z,24.47
2019-01-25T20:20:21.190Z,24.37
2019-01-25T20:24:25.357Z,23.17
2019-01-25T20:28:29.558Z,22.47
2019-01-25T20:32:33.741Z,20.30
2019-01-25T20:36:37.861Z,17.90
2019-01-25T20:40:41.989Z,18.67
2019-01-25T20:44:46.163Z,15.83
2019-01-25T20:48:50.378Z,20.20
2019-01-25T20:52:54.585Z,17.93
2019-01-25T20:56:58.814Z,17.83
2019-01-25T21:01:03.062Z,17.30
2019-01-25T21:05:07.835Z,14.80
2019-01-25T21:09:12.370Z,18.23
2019-01-25T21:13:16.571Z,15.53
2019-01-25T21:17:20.778Z,14.93
2019-01-25T21:21:25.058Z,16.63
2019-01-25T21:25:29.419Z,16.73
2019-01-25T21:29:33.647Z,16.00
2019-01-25T21:33:37.843Z,15.60
2019-01-25T21:37:42.051Z,15.73
2019-01-25T21:41:46.315Z,16.07
2019-01-25T21:45:50.601Z,16.27
2019-01-25T21:49:54.827Z,15.53
2019-01-25T21:53:59.086Z,14.27
2019-01-25T21:58:05.426Z,15.63
2019-01-25T22:02:09.274Z,13.80
2019-01-25T22:06:15.006Z,17.43
2019-01-25T22:10:24.550Z,16.57
2019-01-25T22:14:28.848Z,14.23
2019-01-25T22:18:33.010Z,12.50
2019-01-25T22:22:37.174Z,10.93
2019-01-25T22:26:41.414Z,12.77
2019-01-25T22:30:45.607Z,12.00
2019-01-25T22:34:50.557Z,10.87
2019-01-25T22:38:54.984Z,12.60
2019-01-25T22:42:59.546Z,12.53
2019-01-25T22:47:03.713Z,12.97
2019-01-25T22:51:08.146Z,12.00
2019-01-25T22:55:13.197Z,13.20
2019-01-25T22:59:17.396Z,12.83
2019-01-25T23:03:25.301Z,13.80
2019-01-25T23:07:31.526Z,13.33
2019-01-25T23:11:35.821Z,12.23
2019-01-25T23:15:39.942Z,12.80
2019-01-25T23:19:44.067Z,12.13
2019-01-25T23:23:48.301Z,12.00
2019-01-25T23:27:53.282Z,12.97
2019-01-25T23:31:57.666Z,13.10
2019-01-25T23:36:01.831Z,12.27
2019-01-25T23:40:08.753Z,12.90
2019-01-25T23:44:12.938Z,12.00
2019-01-25T23:48:17.038Z,12.57
2019-01-25T23:52:21.223Z,12.77
2019-01-25T23:56:25.503Z,12.33
